Forside
METAR-TAF:

METAR-TAF

Lufthavne :

Islamabad, Pakistan

Breddekreds: 33-37N, længdekreds: 073-06E, højde: 507 m

Aktuelle vejr

Denne rapport blev lavet for 25 minutter siden, kl. 22:00 UTC
Vind stille
Temperatur 8°C
Fugtighed 93%
Tryk 1019 hPa
Sigt: 4000 m
Nogle få skyer i en højde af 4000 ft
Spredte skyer i en højde af 10000 ft
dis

METAR: OPRN 102200Z 00000KT 4000 BR FEW040 SCT100 08/07 Q1019 NOSIG RMK A3010

Tid: 03:25 (22:25 UTC)

Vejrudsigter

Denne rapport blev lavet for 1 time og 25 minutter siden, kl. 21:00 UTC
Foreløbig gælder fra 10 på 24 UTC til 12 på 06 UTC
Vind 10 kt fra nordvest
Sigt: 5000 m
Spredte skyer i en højde af 4000 ft
Brudte skyer i en højde af 10000 ft
tåge/dis
Midlertidig
fra 11 på 00 UTC til 11 på 04 UTC
Vind 8 kt fra øst
Sigt: 2000 m
Nogle få skyer i en højde af 2500 ft, Optårnet Cumulus.
Spredte skyer i en højde af 3000 ft
Brudte skyer i en højde af 8000 ft
let regn

TAF: OPRN 102100Z 1024/1206 31010KT 5000 HZ SCT040 BKN100 TEMPO 1100/1104 09008KT 2000 -RA FEW025TCU SCT030 BKN080

Vejrobservationer og prognoser fra mere end 4000 lufthavne (METAR og TAF).

De gule og røde prikker repræsenterer de meteorologiske stationer.

Flyt musen over at se navnet på stationen.

Så klik over at se vejr observationer og prognoser.

At skifte det kort: Klik på de grønne knapper med et sort kors for at zoome ind; på den grønne knap med en bindestreg for at zoome ud; eller på de grønne pile for tilstødende kort.


METAR-TAF: